Time;durP1;ratioP1;P1;durP2;ratioP2;P2;SDS_P1;SDS_P2;PMS_P1;PMS_P2;Temp;Humidity;BMP_temperature;BMP_pressure;BME280_temperature;BME280_humidity;BME280_pressure;Samples;Min_cycle;Max_cycle;Signal;HPM_P1;HPM_P2
2023/06/10 00:02:06;;;;;;;4.57;3.33;;;16.80;99.90;;;;;;5113996;28;20435;-46
2023/06/10 00:04:33;;;;;;;5.97;4.57;;;16.60;99.90;;;;;;5114277;28;20526;-47
2023/06/10 00:07:00;;;;;;;5.20;4.00;;;16.60;99.90;;;;;;5114039;28;20559;-46
2023/06/10 00:09:28;;;;;;;5.93;3.97;;;16.60;99.90;;;;;;5112693;28;20488;-46
2023/06/10 00:11:56;;;;;;;6.63;4.47;;;16.60;99.90;;;;;;5114545;28;20450;-47
2023/06/10 00:14:24;;;;;;;4.80;3.60;;;16.60;99.90;;;;;;5114039;28;20475;-46
2023/06/10 00:16:52;;;;;;;6.80;4.47;;;16.60;99.90;;;;;;5113259;28;20448;-50
2023/06/10 00:19:19;;;;;;;6.30;4.03;;;16.60;99.90;;;;;;5110956;28;20995;-47
2023/06/10 00:21:46;;;;;;;5.50;4.37;;;16.60;99.90;;;;;;5112476;28;20442;-46
2023/06/10 00:24:13;;;;;;;4.40;4.00;;;16.60;99.90;;;;;;5112138;28;20446;-48
2023/06/10 00:26:40;;;;;;;5.37;4.30;;;16.60;99.90;;;;;;5112526;28;20504;-49
2023/06/10 00:29:07;;;;;;;5.80;4.13;;;16.60;99.90;;;;;;5112357;28;20465;-46
2023/06/10 00:31:36;;;;;;;5.63;3.93;;;16.60;99.90;;;;;;5112996;28;20611;-49
2023/06/10 00:34:03;;;;;;;4.53;3.53;;;16.60;99.90;;;;;;5113479;28;20469;-46
2023/06/10 00:36:30;;;;;;;5.77;4.20;;;16.70;99.90;;;;;;5113639;28;20447;-46
2023/06/10 00:38:57;;;;;;;5.17;4.13;;;16.60;99.90;;;;;;5113729;28;20446;-46
2023/06/10 00:41:26;;;;;;;4.57;3.90;;;16.50;99.90;;;;;;5113524;28;20446;-49
2023/06/10 00:43:53;;;;;;;6.30;4.47;;;16.50;99.90;;;;;;5113166;28;20794;-46
2023/06/10 00:46:20;;;;;;;5.87;4.77;;;16.40;99.90;;;;;;5111881;28;20579;-46
2023/06/10 00:48:48;;;;;;;5.90;4.70;;;16.50;99.90;;;;;;5113081;28;20994;-46
2023/06/10 00:51:17;;;;;;;5.87;4.23;;;16.50;99.90;;;;;;5113503;28;20991;-46
2023/06/10 00:53:45;;;;;;;6.10;4.30;;;16.50;99.90;;;;;;5113147;28;20446;-46
2023/06/10 00:56:14;;;;;;;6.80;4.30;;;16.50;99.90;;;;;;5113909;28;20983;-46
2023/06/10 00:58:41;;;;;;;4.80;4.30;;;16.50;99.90;;;;;;5112908;28;20532;-46
2023/06/10 01:01:10;;;;;;;5.30;4.10;;;16.40;99.90;;;;;;5113480;28;20445;-48
2023/06/10 01:03:37;;;;;;;5.30;4.60;;;16.40;99.90;;;;;;5113019;28;20445;-46
2023/06/10 01:06:17;;;;;;;5.40;4.30;;;16.40;99.90;;;;;;5113392;28;20533;-46
2023/06/10 01:08:51;;;;;;;5.10;4.27;;;16.30;99.90;;;;;;5112798;28;20500;-49
2023/06/10 01:11:23;;;;;;;6.67;4.63;;;16.20;99.90;;;;;;5097899;28;20973;-47
2023/06/10 01:13:51;;;;;;;4.80;4.17;;;16.20;99.90;;;;;;5091912;28;20503;-47
2023/06/10 01:16:19;;;;;;;5.30;4.20;;;16.20;99.90;;;;;;5092699;28;20948;-46
2023/06/10 01:18:46;;;;;;;6.83;4.23;;;16.20;99.90;;;;;;5090258;28;20535;-49
2023/06/10 01:21:24;;;;;;;6.77;4.60;;;16.30;99.90;;;;;;5092672;28;20522;-46
2023/06/10 01:23:52;;;;;;;4.87;3.83;;;16.30;99.90;;;;;;5092166;28;20499;-46
2023/06/10 01:26:23;;;;;;;4.70;3.73;;;16.30;99.90;;;;;;5092429;28;20529;-47
2023/06/10 01:28:59;;;;;;;4.90;4.07;;;16.20;99.90;;;;;;5092158;28;20449;-47
2023/06/10 01:31:36;;;;;;;5.40;4.23;;;16.20;99.90;;;;;;5092217;28;20915;-46
2023/06/10 01:34:08;;;;;;;4.70;4.10;;;16.20;99.90;;;;;;5092013;28;20454;-49
2023/06/10 01:36:37;;;;;;;4.30;3.77;;;16.30;99.90;;;;;;5092412;28;20541;-49
2023/06/10 01:39:05;;;;;;;4.47;3.83;;;16.30;99.90;;;;;;5092004;28;20470;-46
2023/06/10 01:41:33;;;;;;;4.73;4.03;;;16.40;99.90;;;;;;5092446;28;20477;-46
2023/06/10 01:44:00;;;;;;;5.17;4.33;;;16.30;99.90;;;;;;5143692;22;20508;-91
2023/06/10 01:46:27;;;;;;;5.83;5.00;;;16.20;99.90;;;;;;5124001;28;20788;-91
2023/06/10 01:48:54;;;;;;;5.63;4.30;;;16.10;99.90;;;;;;5123069;28;20434;-91
2023/06/10 01:51:21;;;;;;;5.70;4.30;;;16.00;99.90;;;;;;5126664;28;20467;-91
2023/06/10 01:53:49;;;;;;;4.90;4.40;;;16.10;99.90;;;;;;5129241;28;20471;-92
2023/06/10 01:56:19;;;;;;;5.03;4.57;;;16.10;99.90;;;;;;5131307;22;20494;-49
2023/06/10 01:58:46;;;;;;;4.47;3.83;;;16.10;99.90;;;;;;5111917;28;20442;-49
2023/06/10 02:01:14;;;;;;;5.60;4.47;;;16.00;99.90;;;;;;5112098;28;20527;-49
2023/06/10 02:03:41;;;;;;;5.70;4.40;;;16.00;99.90;;;;;;5111789;28;20554;-49
2023/06/10 02:06:08;;;;;;;4.97;4.23;;;16.00;99.90;;;;;;5112138;28;20532;-51
2023/06/10 02:08:35;;;;;;;7.37;4.37;;;15.90;99.90;;;;;;5111680;28;20558;-51
2023/06/10 02:11:03;;;;;;;6.13;4.40;;;15.90;99.90;;;;;;5112085;28;21004;-49
2023/06/10 02:13:30;;;;;;;8.37;4.10;;;15.90;99.90;;;;;;5112305;28;20461;-53
2023/06/10 02:15:57;;;;;;;5.07;4.40;;;15.80;99.90;;;;;;5110548;28;20461;-51
2023/06/10 02:18:24;;;;;;;4.63;4.00;;;15.70;99.90;;;;;;5109553;28;20531;-49
2023/06/10 02:20:51;;;;;;;5.00;4.00;;;15.70;99.90;;;;;;5112116;28;20476;-53
2023/06/10 02:23:18;;;;;;;4.30;3.90;;;15.80;99.90;;;;;;5111461;28;20974;-49
2023/06/10 02:25:44;;;;;;;4.83;4.30;;;15.80;99.90;;;;;;5110813;28;20468;-49
2023/06/10 02:28:13;;;;;;;6.37;5.00;;;15.70;99.90;;;;;;5111218;28;20555;-51
2023/06/10 02:30:41;;;;;;;5.17;4.40;;;15.70;99.90;;;;;;5112044;28;20543;-50
2023/06/10 02:33:09;;;;;;;5.23;4.00;;;15.70;99.90;;;;;;5111771;28;20470;-52
2023/06/10 02:35:37;;;;;;;6.87;4.23;;;15.70;99.90;;;;;;5111484;28;20449;-49
2023/06/10 02:38:04;;;;;;;4.93;4.30;;;15.70;99.90;;;;;;5111164;28;20442;-53
2023/06/10 02:40:31;;;;;;;10.80;4.37;;;15.60;99.90;;;;;;5109961;28;20483;-47
2023/06/10 02:42:59;;;;;;;7.67;4.67;;;15.60;99.90;;;;;;5111426;28;20543;-50
2023/06/10 02:45:27;;;;;;;5.00;4.20;;;15.60;99.90;;;;;;5111316;28;20437;-49
2023/06/10 02:47:54;;;;;;;4.90;4.20;;;15.70;99.90;;;;;;5109424;28;20569;-49
2023/06/10 02:50:21;;;;;;;7.13;4.47;;;15.70;99.90;;;;;;5111428;28;20852;-51
2023/06/10 02:52:49;;;;;;;5.77;4.43;;;15.70;99.90;;;;;;5111389;28;20468;-49
2023/06/10 02:55:16;;;;;;;4.67;3.80;;;15.60;99.90;;;;;;5111122;28;20513;-49
2023/06/10 02:57:43;;;;;;;5.57;4.77;;;15.50;99.90;;;;;;5111163;28;20531;-50
2023/06/10 03:00:11;;;;;;;4.63;4.10;;;15.50;99.90;;;;;;5111319;28;20473;-49
2023/06/10 03:02:39;;;;;;;4.87;4.00;;;15.40;99.90;;;;;;5111245;28;20505;-50
2023/06/10 03:05:09;;;;;;;5.90;4.27;;;15.50;99.90;;;;;;5110782;28;20487;-49
2023/06/10 03:07:37;;;;;;;7.30;4.07;;;15.40;99.90;;;;;;5110993;28;20507;-50
2023/06/10 03:10:05;;;;;;;4.87;4.30;;;15.40;99.90;;;;;;5111384;28;20474;-49
2023/06/10 03:12:32;;;;;;;5.47;4.50;;;15.40;99.90;;;;;;5110992;28;20493;-49
2023/06/10 03:14:59;;;;;;;4.90;4.40;;;15.40;99.90;;;;;;5109967;28;20526;-49
2023/06/10 03:17:26;;;;;;;5.03;4.33;;;15.30;99.90;;;;;;5111026;28;20432;-52
2023/06/10 03:19:54;;;;;;;4.70;4.20;;;15.40;99.90;;;;;;5109371;28;20474;-49
2023/06/10 03:22:21;;;;;;;9.53;6.43;;;15.30;99.90;;;;;;5111555;28;20556;-49
2023/06/10 03:24:50;;;;;;;6.27;4.63;;;15.20;99.90;;;;;;5111005;28;20848;-52
2023/06/10 03:27:17;;;;;;;7.13;4.27;;;15.10;99.90;;;;;;5110907;28;20636;-49
2023/06/10 03:29:44;;;;;;;5.60;4.40;;;15.10;99.90;;;;;;5111418;28;20441;-53
2023/06/10 03:32:12;;;;;;;4.87;3.73;;;15.00;99.90;;;;;;5111097;28;20811;-49
2023/06/10 03:34:39;;;;;;;5.00;4.50;;;15.00;99.90;;;;;;5110361;28;20444;-51
2023/06/10 03:37:08;;;;;;;5.67;4.20;;;15.00;99.90;;;;;;5114370;28;20462;-50
2023/06/10 03:39:34;;;;;;;5.20;3.80;;;14.90;99.90;;;;;;5115381;28;20442;-53
2023/06/10 03:42:01;;;;;;;4.17;3.40;;;15.00;99.90;;;;;;5114991;28;20528;-49
2023/06/10 03:44:29;;;;;;;6.33;4.30;;;14.90;99.90;;;;;;5114281;28;20474;-49
2023/06/10 03:46:56;;;;;;;5.67;4.53;;;15.00;99.90;;;;;;5112648;28;20446;-50
2023/06/10 03:49:26;;;;;;;5.20;4.53;;;15.00;99.90;;;;;;5114549;28;20857;-49
2023/06/10 03:51:53;;;;;;;4.80;3.70;;;15.10;99.90;;;;;;5114617;28;20509;-49
2023/06/10 03:54:22;;;;;;;4.93;4.23;;;15.20;99.90;;;;;;5114131;28;20527;-49
2023/06/10 03:56:49;;;;;;;5.23;4.30;;;15.20;99.90;;;;;;5114336;28;20479;-49
2023/06/10 03:59:16;;;;;;;6.37;4.20;;;15.20;99.90;;;;;;5114963;28;20438;-53
2023/06/10 04:01:43;;;;;;;6.10;4.57;;;15.20;99.90;;;;;;5114350;28;20952;-49
2023/06/10 04:04:10;;;;;;;8.23;5.43;;;15.10;99.90;;;;;;5114276;28;20470;-52
2023/06/10 04:06:37;;;;;;;6.10;3.97;;;15.10;99.90;;;;;;5114398;28;20536;-49
2023/06/10 04:09:05;;;;;;;6.57;4.33;;;15.10;99.90;;;;;;5114243;28;20478;-50
2023/06/10 04:11:33;;;;;;;7.27;4.97;;;15.10;99.90;;;;;;5114488;28;21124;-53
2023/06/10 04:14:01;;;;;;;4.23;3.83;;;15.00;99.90;;;;;;5114037;28;20550;-49
2023/06/10 04:16:28;;;;;;;5.87;4.73;;;15.10;99.90;;;;;;5114129;28;20439;-50
2023/06/10 04:18:55;;;;;;;7.07;4.67;;;15.10;99.90;;;;;;5112303;28;20528;-51
2023/06/10 04:21:22;;;;;;;7.80;4.33;;;15.10;99.90;;;;;;5114128;28;20531;-49
2023/06/10 04:23:49;;;;;;;6.07;4.73;;;15.10;99.90;;;;;;5113683;28;20849;-49
2023/06/10 04:26:16;;;;;;;6.00;4.93;;;15.10;99.90;;;;;;5114060;28;20444;-49
2023/06/10 04:28:45;;;;;;;6.47;3.90;;;15.10;99.90;;;;;;5113742;28;21100;-52
2023/06/10 04:31:12;;;;;;;6.10;4.47;;;15.10;99.90;;;;;;5114299;28;20629;-49
2023/06/10 04:33:39;;;;;;;5.20;4.60;;;15.10;99.90;;;;;;5113833;28;20546;-50
2023/06/10 04:36:07;;;;;;;4.67;3.90;;;15.10;99.90;;;;;;5113873;28;20527;-49
2023/06/10 04:38:34;;;;;;;5.00;4.27;;;15.20;99.90;;;;;;5113625;28;20803;-49
2023/06/10 04:41:01;;;;;;;4.10;3.70;;;15.30;99.90;;;;;;5114140;28;20533;-49
2023/06/10 04:43:28;;;;;;;4.90;4.40;;;15.30;99.90;;;;;;5114261;28;20468;-50
2023/06/10 04:45:57;;;;;;;4.77;3.57;;;15.30;99.90;;;;;;5112954;28;20450;-49
2023/06/10 04:48:24;;;;;;;5.73;4.60;;;15.30;99.90;;;;;;5111544;28;20506;-53
2023/06/10 04:50:51;;;;;;;5.70;4.63;;;15.30;99.90;;;;;;5113845;28;20820;-49
2023/06/10 04:53:18;;;;;;;4.93;3.90;;;15.40;99.90;;;;;;5113512;28;20986;-50
2023/06/10 04:55:45;;;;;;;5.40;4.37;;;15.30;99.90;;;;;;5113076;28;20545;-50
2023/06/10 04:58:12;;;;;;;5.60;4.60;;;15.30;99.90;;;;;;5113003;28;20529;-49
2023/06/10 05:00:39;;;;;;;5.93;5.07;;;15.30;99.90;;;;;;5113000;28;20483;-49
2023/06/10 05:03:07;;;;;;;6.90;5.07;;;15.40;99.90;;;;;;5113512;28;20546;-49
2023/06/10 05:05:34;;;;;;;6.50;4.40;;;15.40;99.90;;;;;;5112839;28;20529;-49
2023/06/10 05:08:01;;;;;;;6.07;4.80;;;15.30;99.90;;;;;;5112840;28;20930;-51
2023/06/10 05:10:31;;;;;;;7.10;4.63;;;15.40;99.90;;;;;;5113485;28;20450;-49
2023/06/10 05:12:58;;;;;;;5.83;4.53;;;15.40;99.90;;;;;;5112953;28;20467;-50
2023/06/10 05:15:25;;;;;;;5.40;4.73;;;15.30;99.90;;;;;;5112989;28;20445;-49
2023/06/10 05:17:52;;;;;;;6.60;4.70;;;15.30;99.90;;;;;;5111430;28;20514;-49
2023/06/10 05:20:21;;;;;;;7.73;4.57;;;15.40;99.90;;;;;;5113179;28;20959;-52
2023/06/10 05:22:48;;;;;;;5.03;4.03;;;15.40;99.90;;;;;;5112888;28;20496;-49
2023/06/10 05:25:15;;;;;;;5.60;5.03;;;15.50;99.90;;;;;;5112526;28;20524;-50
2023/06/10 05:27:42;;;;;;;6.70;5.00;;;15.40;99.90;;;;;;5113116;28;20441;-51
2023/06/10 05:30:10;;;;;;;5.80;4.47;;;15.50;99.90;;;;;;5112846;28;20446;-50
2023/06/10 05:32:37;;;;;;;6.27;4.87;;;15.50;99.90;;;;;;5112992;28;20521;-49
2023/06/10 05:35:06;;;;;;;5.73;5.00;;;15.50;99.90;;;;;;5112555;28;21009;-49
2023/06/10 05:37:36;;;;;;;6.67;4.50;;;15.60;99.90;;;;;;5112493;28;20541;-50
2023/06/10 05:40:05;;;;;;;4.93;4.07;;;15.60;99.90;;;;;;5113185;28;20439;-49
2023/06/10 05:42:32;;;;;;;5.60;4.03;;;15.60;99.90;;;;;;5112289;28;20988;-50
2023/06/10 05:44:58;;;;;;;4.30;3.73;;;15.60;99.90;;;;;;5112321;28;20480;-53
2023/06/10 05:47:25;;;;;;;5.87;4.80;;;15.60;99.90;;;;;;5110571;28;20529;-49
2023/06/10 05:49:52;;;;;;;7.43;5.97;;;15.60;99.90;;;;;;5113045;28;20484;-49
2023/06/10 05:52:19;;;;;;;5.87;5.27;;;15.60;99.90;;;;;;5112463;28;21052;-49
2023/06/10 05:54:48;;;;;;;5.33;4.67;;;15.60;99.90;;;;;;5112215;28;20483;-49
2023/06/10 05:57:15;;;;;;;7.90;5.30;;;15.50;99.90;;;;;;5111908;28;21005;-49
2023/06/10 05:59:42;;;;;;;4.73;3.80;;;15.40;99.90;;;;;;5112121;28;20929;-49
2023/06/10 06:02:08;;;;;;;6.27;5.10;;;15.40;99.90;;;;;;5112177;28;20488;-49
2023/06/10 06:04:35;;;;;;;5.27;4.50;;;15.50;99.90;;;;;;5111662;28;20440;-52
2023/06/10 06:07:03;;;;;;;6.13;5.47;;;;;;;;;;5110744;28;20445;-50
2023/06/10 06:09:30;;;;;;;5.60;4.93;;;;;;;;;;5110758;28;20860;-49
2023/06/10 06:11:59;;;;;;;7.50;4.40;;;16.40;99.90;;;;;;5110449;28;20528;-50
2023/06/10 06:14:25;;;;;;;6.00;4.70;;;16.60;99.90;;;;;;5110302;28;20497;-51
2023/06/10 06:16:52;;;;;;;6.23;4.40;;;16.60;99.90;;;;;;5110523;28;20524;-50
2023/06/10 06:19:19;;;;;;;7.00;5.10;;;16.60;99.90;;;;;;5108680;28;20519;-50
2023/06/10 06:21:46;;;;;;;6.50;4.53;;;16.40;99.90;;;;;;5110719;28;20948;-50
2023/06/10 06:24:13;;;;;;;6.60;4.80;;;16.50;99.90;;;;;;5111353;28;21096;-49
2023/06/10 06:26:40;;;;;;;4.37;3.93;;;16.50;99.90;;;;;;5112030;28;20523;-49
2023/06/10 06:29:08;;;;;;;5.60;4.50;;;16.50;99.90;;;;;;5111299;28;20572;-50
2023/06/10 06:31:35;;;;;;;6.00;4.80;;;16.40;99.90;;;;;;5111866;28;20480;-49
2023/06/10 06:34:02;;;;;;;6.53;4.60;;;16.50;99.90;;;;;;5111492;28;20498;-50
2023/06/10 06:36:30;;;;;;;5.50;4.70;;;16.60;99.90;;;;;;5111615;28;20527;-52
2023/06/10 06:38:58;;;;;;;6.83;4.30;;;16.70;99.90;;;;;;5111773;28;20476;-51
2023/06/10 06:41:25;;;;;;;4.70;4.03;;;16.80;99.90;;;;;;5111278;28;20944;-52
2023/06/10 06:43:52;;;;;;;5.13;3.97;;;16.90;99.90;;;;;;5110999;28;20461;-50
2023/06/10 06:46:21;;;;;;;5.17;4.30;;;17.10;99.90;;;;;;5109847;28;20465;-50
2023/06/10 06:48:48;;;;;;;5.10;4.13;;;17.20;99.90;;;;;;5111413;28;20481;-51
2023/06/10 06:51:15;;;;;;;4.47;3.87;;;17.30;99.90;;;;;;5111545;28;20487;-49
2023/06/10 06:53:44;;;;;;;5.60;3.97;;;17.30;99.90;;;;;;5111314;28;20541;-57
2023/06/10 06:56:11;;;;;;;5.60;4.43;;;17.40;99.90;;;;;;5111662;28;20459;-49
2023/06/10 06:58:38;;;;;;;5.20;4.43;;;17.40;99.90;;;;;;5106059;28;20506;-51
2023/06/10 07:01:05;;;;;;;4.43;3.93;;;17.40;99.90;;;;;;5103724;28;20837;-52
2023/06/10 07:03:33;;;;;;;5.40;4.67;;;17.40;99.90;;;;;;5110881;28;20467;-51
2023/06/10 07:06:00;;;;;;;5.03;4.40;;;17.50;99.90;;;;;;5108623;28;20988;-53
2023/06/10 07:08:27;;;;;;;4.93;4.33;;;17.50;99.90;;;;;;5108703;28;20518;-57
2023/06/10 07:10:54;;;;;;;5.33;4.83;;;17.60;99.90;;;;;;5112490;28;20473;-49
2023/06/10 07:13:21;;;;;;;6.43;3.83;;;17.70;99.90;;;;;;5114283;28;20465;-52
2023/06/10 07:15:48;;;;;;;6.57;4.87;;;17.80;99.90;;;;;;5114897;28;20870;-50
2023/06/10 07:18:16;;;;;;;5.47;4.37;;;18.00;99.90;;;;;;5113045;28;20998;-53
2023/06/10 07:20:44;;;;;;;6.17;4.90;;;18.00;99.90;;;;;;5112274;28;20535;-49
2023/06/10 07:23:11;;;;;;;5.83;4.30;;;18.00;99.90;;;;;;5114686;28;20511;-52
2023/06/10 07:25:38;;;;;;;5.90;4.73;;;18.00;99.90;;;;;;5114377;28;20462;-50
2023/06/10 07:28:05;;;;;;;5.97;4.57;;;18.10;99.90;;;;;;5114403;28;20523;-54
2023/06/10 07:30:32;;;;;;;4.90;4.40;;;18.20;99.90;;;;;;5115066;28;20437;-49
2023/06/10 07:32:59;;;;;;;5.17;4.40;;;18.20;99.90;;;;;;5114106;28;20515;-49
2023/06/10 07:35:26;;;;;;;5.17;4.60;;;18.30;99.90;;;;;;5114375;28;20440;-51
2023/06/10 07:37:54;;;;;;;6.10;5.07;;;18.40;99.90;;;;;;5114259;28;20531;-51
2023/06/10 07:40:21;;;;;;;6.00;4.80;;;18.50;99.90;;;;;;5114466;28;20432;-51
2023/06/10 07:42:48;;;;;;;5.10;4.13;;;18.60;99.90;;;;;;5114242;28;20548;-53
2023/06/10 07:45:15;;;;;;;5.27;4.37;;;18.70;99.90;;;;;;5114270;28;20807;-51
2023/06/10 07:47:41;;;;;;;4.00;3.60;;;18.80;99.90;;;;;;5112394;28;20470;-53
2023/06/10 07:50:09;;;;;;;5.50;4.97;;;18.80;99.90;;;;;;5114392;28;20719;-52
2023/06/10 07:52:36;;;;;;;5.07;4.57;;;18.90;99.90;;;;;;5113519;28;20543;-52
2023/06/10 07:55:06;;;;;;;4.50;4.03;;;19.00;99.90;;;;;;5133579;22;20866;-91
2023/06/10 07:57:36;;;;;;;6.10;4.37;;;19.20;99.90;;;;;;5051484;28;20872;-92
2023/06/10 08:00:04;;;;;;;6.07;4.30;;;19.20;99.90;;;;;;5045776;28;20492;-92
2023/06/10 08:02:31;;;;;;;6.67;4.67;;;19.40;99.90;;;;;;5044746;28;20518;-90
2023/06/10 08:04:58;;;;;;;6.20;4.87;;;19.40;99.90;;;;;;5044909;28;20494;-90
2023/06/10 08:07:25;;;;;;;6.00;4.67;;;19.60;99.90;;;;;;5042458;28;20448;-91
2023/06/10 08:09:52;;;;;;;5.73;4.63;;;19.60;99.90;;;;;;5095766;22;20561;-49
2023/06/10 08:12:21;;;;;;;5.70;5.00;;;19.70;99.90;;;;;;5090841;28;20501;-51
2023/06/10 08:14:48;;;;;;;6.40;3.73;;;19.70;99.90;;;;;;5092965;28;20806;-46
2023/06/10 08:17:15;;;;;;;5.37;4.87;;;19.80;99.90;;;;;;5093093;28;20490;-47
2023/06/10 08:19:41;;;;;;;5.90;5.10;;;19.90;99.90;;;;;;5090153;28;20470;-50
2023/06/10 08:22:09;;;;;;;6.60;5.30;;;20.00;99.90;;;;;;5118256;22;21009;-93
2023/06/10 08:24:36;;;;;;;5.90;5.30;;;20.10;99.90;;;;;;5094511;28;20439;-91
2023/06/10 08:27:05;;;;;;;6.30;5.00;;;20.30;99.90;;;;;;5095259;28;20482;-92
2023/06/10 08:29:34;;;;;;;5.30;4.63;;;20.40;99.90;;;;;;5094218;28;20493;-93
2023/06/10 08:32:02;;;;;;;6.30;4.93;;;20.50;99.90;;;;;;5094793;28;20496;-93
2023/06/10 08:34:29;;;;;;;4.87;3.90;;;20.60;99.90;;;;;;5092025;28;20535;-94
2023/06/10 08:36:56;;;;;;;5.17;4.30;;;20.60;99.90;;;;;;5091284;28;20940;-93
2023/06/10 08:39:23;;;;;;;4.53;3.90;;;20.60;99.90;;;;;;5075961;28;20498;-92
2023/06/10 08:42:00;;;;;;;4.53;3.77;;;20.70;99.90;;;;;;5091947;28;20509;-90
2023/06/10 08:44:29;;;;;;;5.70;5.07;;;20.60;99.90;;;;;;5095232;28;20864;-94
2023/06/10 08:47:01;;;;;;;5.60;4.50;;;20.50;99.90;;;;;;5092712;28;20448;-88
2023/06/10 08:49:31;;;;;;;5.90;4.27;;;20.60;99.90;;;;;;5093255;28;20482;-89
2023/06/10 08:52:00;;;;;;;6.60;5.17;;;20.60;99.90;;;;;;5092808;28;20444;-87
2023/06/10 08:54:32;;;;;;;4.83;3.97;;;20.70;99.90;;;;;;5093130;28;20784;-87
2023/06/10 08:57:02;;;;;;;7.03;4.50;;;20.70;99.90;;;;;;5093016;28;20451;-86
2023/06/10 08:59:30;;;;;;;5.00;4.30;;;20.80;99.90;;;;;;5094000;28;20976;-87
2023/06/10 09:01:59;;;;;;;5.60;4.27;;;21.00;99.90;;;;;;5082070;28;20530;-87
2023/06/10 09:04:26;;;;;;;6.60;4.33;;;21.10;99.90;;;;;;5081399;28;20473;-87
2023/06/10 09:06:55;;;;;;;5.90;4.53;;;21.10;99.90;;;;;;5081235;28;20455;-87
2023/06/10 09:09:23;;;;;;;5.43;4.30;;;21.20;99.90;;;;;;5069620;28;20993;-85
2023/06/10 09:11:50;;;;;;;5.10;4.57;;;21.40;99.90;;;;;;5069503;28;20481;-87
2023/06/10 09:14:17;;;;;;;7.10;5.80;;;21.40;99.90;;;;;;5069158;28;21001;-92
2023/06/10 09:16:46;;;;;;;5.73;5.03;;;21.50;99.90;;;;;;5070485;28;20540;-90
2023/06/10 09:19:16;;;;;;;5.27;4.50;;;21.40;99.90;;;;;;5088978;28;20570;-90
2023/06/10 09:21:43;;;;;;;7.30;4.60;;;21.50;99.90;;;;;;5091326;28;20464;-88
2023/06/10 09:24:10;;;;;;;5.20;4.70;;;21.50;99.90;;;;;;5091034;28;20857;-89
2023/06/10 09:26:37;;;;;;;7.40;5.47;;;21.70;99.90;;;;;;5091616;28;20510;-88
2023/06/10 09:29:05;;;;;;;5.43;4.30;;;21.80;99.90;;;;;;5089928;28;21003;-89
2023/06/10 09:31:35;;;;;;;5.67;5.07;;;21.90;99.90;;;;;;5091445;28;20792;-90
2023/06/10 09:34:09;;;;;;;5.27;4.77;;;21.90;99.90;;;;;;5073529;28;20442;-88
2023/06/10 09:36:39;;;;;;;7.20;4.83;;;22.10;99.90;;;;;;5090520;28;20520;-89
2023/06/10 09:39:14;;;;;;;5.63;4.90;;;22.10;99.90;;;;;;5090906;28;20548;-89
2023/06/10 09:41:42;;;;;;;6.27;5.67;;;22.10;99.90;;;;;;5090300;28;20538;-90
2023/06/10 09:44:13;;;;;;;6.80;6.10;;;22.20;99.90;;;;;;5090972;28;20452;-89
2023/06/10 09:46:40;;;;;;;6.47;5.87;;;22.40;99.90;;;;;;5085785;28;20495;-89
2023/06/10 09:49:07;;;;;;;7.83;4.70;;;22.40;99.90;;;;;;5087897;28;20504;-91
2023/06/10 09:51:34;;;;;;;5.50;5.00;;;22.50;99.90;;;;;;5081977;28;20440;-92
2023/06/10 09:54:05;;;;;;;5.67;4.30;;;22.50;99.90;;;;;;5089837;28;20519;-92
2023/06/10 09:56:36;;;;;;;5.50;4.00;;;22.60;99.90;;;;;;5081649;28;20449;-91
2023/06/10 09:59:06;;;;;;;5.43;4.60;;;22.70;99.90;;;;;;5077608;28;20827;-92
2023/06/10 10:01:33;;;;;;;8.23;4.30;;;22.80;99.90;;;;;;5075213;28;20479;-92
2023/06/10 10:04:01;;;;;;;4.97;4.47;;;23.00;99.90;;;;;;5069566;28;20429;-93
2023/06/10 10:06:29;;;;;;;5.83;4.87;;;22.90;99.90;;;;;;5078530;28;20481;-92
2023/06/10 10:08:56;;;;;;;5.37;4.67;;;22.40;99.90;;;;;;5079567;28;20497;-93
2023/06/10 10:11:26;;;;;;;4.83;4.27;;;22.30;99.90;;;;;;5089346;28;20539;-92
2023/06/10 10:13:54;;;;;;;6.00;5.40;;;22.20;99.90;;;;;;5088376;28;20895;-92
2023/06/10 10:16:23;;;;;;;6.87;6.17;;;22.20;99.90;;;;;;5088469;28;20533;-90
2023/06/10 10:18:55;;;;;;;6.20;5.50;;;22.10;99.90;;;;;;5087080;28;20472;-91
2023/06/10 10:21:25;;;;;;;4.93;4.43;;;22.00;99.90;;;;;;5089174;28;20457;-91
2023/06/10 10:23:59;;;;;;;5.90;4.47;;;21.90;99.90;;;;;;5088115;28;20451;-91
2023/06/10 10:26:29;;;;;;;6.13;5.53;;;21.90;99.90;;;;;;5091816;28;20479;-91
2023/06/10 10:29:06;;;;;;;5.27;4.60;;;21.90;99.90;;;;;;5089634;28;20463;-91
2023/06/10 10:31:35;;;;;;;6.30;5.43;;;22.00;99.90;;;;;;5088233;28;20538;-92
2023/06/10 10:34:08;;;;;;;6.13;5.50;;;22.00;99.90;;;;;;5088100;28;20438;-91
2023/06/10 10:36:36;;;;;;;5.67;5.10;;;22.10;99.90;;;;;;5080966;28;20490;-91
2023/06/10 10:39:05;;;;;;;6.30;5.40;;;22.10;99.90;;;;;;5073598;28;21233;-91
2023/06/10 10:41:35;;;;;;;5.67;5.10;;;22.10;99.90;;;;;;5088157;28;20936;-91
2023/06/10 10:44:05;;;;;;;5.90;5.30;;;22.20;99.90;;;;;;5090119;28;21020;-92
2023/06/10 10:46:42;;;;;;;6.47;5.47;;;22.20;99.90;;;;;;5066099;28;20506;-92
2023/06/10 10:49:11;;;;;;;5.77;5.03;;;22.30;99.90;;;;;;5068575;28;20831;-91
2023/06/10 10:51:38;;;;;;;5.17;4.67;;;22.40;99.90;;;;;;5069864;28;20963;-92
2023/06/10 10:54:12;;;;;;;5.30;4.40;;;22.50;99.90;;;;;;5081368;28;20452;-93
2023/06/10 10:57:01;;;;;;;6.50;4.87;;;22.70;99.90;;;;;;5081731;28;20446;-92
2023/06/10 10:59:44;;;;;;;5.27;4.77;;;22.70;99.90;;;;;;5089515;28;20471;-91
2023/06/10 11:02:16;;;;;;;5.70;4.90;;;22.70;99.90;;;;;;5084508;28;21147;-92
2023/06/10 11:04:47;;;;;;;6.10;4.60;;;22.70;99.90;;;;;;5076441;28;20456;-92
2023/06/10 11:07:15;;;;;;;5.60;4.73;;;22.80;99.90;;;;;;5083817;28;20502;-92
2023/06/10 11:10:00;;;;;;;4.97;4.47;;;23.00;99.90;;;;;;5077014;28;20480;-91
2023/06/10 11:12:49;;;;;;;6.37;4.83;;;23.10;99.90;;;;;;5066109;28;20484;-92
2023/06/10 11:15:20;;;;;;;5.27;4.07;;;23.10;99.90;;;;;;5068772;28;20486;-91
2023/06/10 11:18:10;;;;;;;5.37;4.60;;;23.10;99.90;;;;;;5068220;28;20448;-93
2023/06/10 11:20:46;;;;;;;5.47;4.77;;;23.00;99.90;;;;;;5068848;28;20509;-92
2023/06/10 11:23:36;;;;;;;5.00;3.93;;;23.00;99.90;;;;;;5068029;28;20483;-92
2023/06/10 11:26:34;;;;;;;6.07;4.90;;;23.10;99.90;;;;;;5068467;28;20488;-92
2023/06/10 11:29:11;;;;;;;5.90;4.37;;;23.10;99.90;;;;;;5068368;28;20480;-91
2023/06/10 11:31:47;;;;;;;5.20;4.70;;;23.10;99.90;;;;;;5074944;28;20479;-91
2023/06/10 11:34:15;;;;;;;5.67;4.73;;;23.10;99.90;;;;;;5074988;28;20523;-92
2023/06/10 11:36:45;;;;;;;6.10;4.83;;;23.10;99.90;;;;;;5068654;28;20441;-90
2023/06/10 11:39:12;;;;;;;5.40;4.77;;;23.20;99.90;;;;;;5070002;28;20465;-92
2023/06/10 11:41:41;;;;;;;5.77;4.90;;;23.20;99.90;;;;;;5070111;28;20520;-91
2023/06/10 11:44:13;;;;;;;5.83;4.43;;;23.20;99.90;;;;;;5082694;28;20723;-94
2023/06/10 11:46:42;;;;;;;9.03;5.27;;;23.20;99.90;;;;;;5085310;28;20448;-92
2023/06/10 11:49:09;;;;;;;6.00;4.80;;;23.10;99.70;;;;;;5086594;28;20508;-93
2023/06/10 11:51:39;;;;;;;5.57;4.27;;;23.10;99.90;;;;;;5071989;28;20478;-91
2023/06/10 11:54:07;;;;;;;5.30;4.40;;;23.10;99.90;;;;;;5072110;28;20540;-91
2023/06/10 11:56:34;;;;;;;5.87;4.83;;;23.20;99.80;;;;;;5084543;28;20492;-91
2023/06/10 11:59:04;;;;;;;6.50;4.97;;;23.20;99.90;;;;;;5097535;28;20536;-91
2023/06/10 12:01:34;;;;;;;5.00;4.20;;;23.30;99.90;;;;;;5096838;28;20467;-91
2023/06/10 12:04:03;;;;;;;6.00;4.60;;;23.40;99.90;;;;;;5089860;28;20440;-92
2023/06/10 12:06:40;;;;;;;5.37;4.40;;;23.60;99.90;;;;;;5081041;28;20436;-91
2023/06/10 12:09:07;;;;;;;4.93;4.23;;;23.70;99.50;;;;;;5097648;28;20474;-92
2023/06/10 12:11:36;;;;;;;7.03;4.87;;;23.80;99.90;;;;;;5096289;28;20472;-92
2023/06/10 12:14:03;;;;;;;5.43;4.67;;;23.90;97.70;;;;;;5097618;28;20955;-92
2023/06/10 12:16:30;;;;;;;5.23;4.73;;;24.00;99.90;;;;;;5098109;28;20913;-92
2023/06/10 12:19:05;;;;;;;5.90;4.53;;;24.00;99.90;;;;;;5097495;28;20474;-93
2023/06/10 12:21:34;;;;;;;5.00;4.23;;;24.10;98.00;;;;;;5096100;28;20827;-93
2023/06/10 12:24:06;;;;;;;5.43;4.93;;;24.20;99.90;;;;;;5096494;28;20451;-92
2023/06/10 12:26:41;;;;;;;4.93;4.43;;;24.30;99.90;;;;;;5096250;28;21009;-91
2023/06/10 12:29:22;;;;;;;4.80;4.30;;;24.30;99.90;;;;;;5094000;28;20884;-91
2023/06/10 12:31:57;;;;;;;5.53;4.97;;;24.30;98.90;;;;;;5081438;28;20476;-92
2023/06/10 12:34:37;;;;;;;6.90;4.60;;;24.30;99.90;;;;;;5075174;28;20505;-93
2023/06/10 12:37:06;;;;;;;4.53;4.00;;;24.30;99.90;;;;;;5071317;28;20516;-92
2023/06/10 12:39:34;;;;;;;5.93;4.50;;;24.30;99.90;;;;;;5085876;28;20472;-92
2023/06/10 12:42:02;;;;;;;5.73;5.13;;;24.40;99.90;;;;;;5083715;28;20473;-92
2023/06/10 12:44:36;;;;;;;6.73;4.90;;;24.40;99.90;;;;;;5086932;28;20714;-91
2023/06/10 12:47:09;;;;;;;23.17;7.13;;;24.30;99.90;;;;;;5094774;28;20525;-93
2023/06/10 12:49:38;;;;;;;7.47;5.20;;;24.30;99.90;;;;;;5094919;28;20522;-92
2023/06/10 12:52:05;;;;;;;5.47;4.90;;;24.30;99.90;;;;;;5093389;28;20499;-91
2023/06/10 12:54:33;;;;;;;5.37;4.60;;;24.30;99.90;;;;;;5092041;28;20518;-94
2023/06/10 12:57:00;;;;;;;5.30;4.80;;;24.30;99.90;;;;;;5095315;28;20490;-91